sensor_id;sensor_type;location;lat;lon;timestamp;P1;durP1;ratioP1;P2;durP2;ratioP2
70683;SDS011;58263;48.146;11.440;2023-03-03T00:01:20;35.40;;;14.00;;
70683;SDS011;58263;48.146;11.440;2023-03-03T00:03:49;34.05;;;14.75;;
70683;SDS011;58263;48.146;11.440;2023-03-03T00:06:14;34.05;;;14.13;;
70683;SDS011;58263;48.146;11.440;2023-03-03T00:08:40;35.13;;;14.25;;
70683;SDS011;58263;48.146;11.440;2023-03-03T00:11:06;31.50;;;13.02;;
70683;SDS011;58263;48.146;11.440;2023-03-03T00:13:32;31.98;;;14.32;;
70683;SDS011;58263;48.146;11.440;2023-03-03T00:16:11;38.55;;;15.55;;
70683;SDS011;58263;48.146;11.440;2023-03-03T00:18:37;34.90;;;14.90;;
70683;SDS011;58263;48.146;11.440;2023-03-03T00:21:41;36.60;;;14.50;;
70683;SDS011;58263;48.146;11.440;2023-03-03T00:26:52;35.05;;;13.07;;
70683;SDS011;58263;48.146;11.440;2023-03-03T00:32:08;38.95;;;14.35;;
70683;SDS011;58263;48.146;11.440;2023-03-03T00:34:52;34.25;;;12.57;;
70683;SDS011;58263;48.146;11.440;2023-03-03T00:37:23;34.00;;;14.80;;
70683;SDS011;58263;48.146;11.440;2023-03-03T00:40:10;32.28;;;13.02;;
70683;SDS011;58263;48.146;11.440;2023-03-03T00:42:44;34.33;;;13.45;;
70683;SDS011;58263;48.146;11.440;2023-03-03T00:48:15;32.10;;;13.63;;
70683;SDS011;58263;48.146;11.440;2023-03-03T00:50:45;38.33;;;14.55;;
70683;SDS011;58263;48.146;11.440;2023-03-03T00:53:15;28.60;;;12.93;;
70683;SDS011;58263;48.146;11.440;2023-03-03T00:55:42;31.35;;;13.55;;
70683;SDS011;58263;48.146;11.440;2023-03-03T00:58:07;33.15;;;14.50;;
70683;SDS011;58263;48.146;11.440;2023-03-03T01:00:33;31.75;;;14.05;;
70683;SDS011;58263;48.146;11.440;2023-03-03T01:03:01;35.72;;;13.93;;
70683;SDS011;58263;48.146;11.440;2023-03-03T01:05:28;32.40;;;14.63;;
70683;SDS011;58263;48.146;11.440;2023-03-03T01:07:54;34.55;;;14.15;;
70683;SDS011;58263;48.146;11.440;2023-03-03T01:10:19;33.77;;;14.53;;
70683;SDS011;58263;48.146;11.440;2023-03-03T01:12:44;33.42;;;14.05;;
70683;SDS011;58263;48.146;11.440;2023-03-03T01:15:11;39.28;;;15.68;;
70683;SDS011;58263;48.146;11.440;2023-03-03T01:17:37;31.17;;;13.07;;
70683;SDS011;58263;48.146;11.440;2023-03-03T01:20:04;36.15;;;14.85;;
70683;SDS011;58263;48.146;11.440;2023-03-03T01:22:30;29.52;;;14.57;;
70683;SDS011;58263;48.146;11.440;2023-03-03T01:24:55;33.35;;;14.18;;
70683;SDS011;58263;48.146;11.440;2023-03-03T01:27:21;32.20;;;12.93;;
70683;SDS011;58263;48.146;11.440;2023-03-03T01:29:46;33.97;;;14.43;;
70683;SDS011;58263;48.146;11.440;2023-03-03T01:32:11;34.43;;;14.10;;
70683;SDS011;58263;48.146;11.440;2023-03-03T01:34:37;29.57;;;14.03;;
70683;SDS011;58263;48.146;11.440;2023-03-03T01:37:02;34.40;;;14.30;;
70683;SDS011;58263;48.146;11.440;2023-03-03T01:39:27;31.73;;;13.23;;
70683;SDS011;58263;48.146;11.440;2023-03-03T01:41:53;37.28;;;14.90;;
70683;SDS011;58263;48.146;11.440;2023-03-03T01:44:18;33.10;;;14.87;;
70683;SDS011;58263;48.146;11.440;2023-03-03T01:46:45;30.60;;;13.70;;
70683;SDS011;58263;48.146;11.440;2023-03-03T01:49:21;33.85;;;13.35;;
70683;SDS011;58263;48.146;11.440;2023-03-03T01:51:56;31.05;;;13.10;;
70683;SDS011;58263;48.146;11.440;2023-03-03T01:54:30;32.47;;;13.18;;
70683;SDS011;58263;48.146;11.440;2023-03-03T01:57:02;33.92;;;14.63;;
70683;SDS011;58263;48.146;11.440;2023-03-03T01:59:33;33.05;;;12.90;;
70683;SDS011;58263;48.146;11.440;2023-03-03T02:02:02;36.00;;;14.38;;
70683;SDS011;58263;48.146;11.440;2023-03-03T02:04:28;32.33;;;14.95;;
70683;SDS011;58263;48.146;11.440;2023-03-03T02:06:54;35.00;;;13.73;;
70683;SDS011;58263;48.146;11.440;2023-03-03T02:10:25;32.55;;;13.98;;
70683;SDS011;58263;48.146;11.440;2023-03-03T02:12:27;34.15;;;13.77;;
70683;SDS011;58263;48.146;11.440;2023-03-03T02:14:59;34.10;;;13.85;;
70683;SDS011;58263;48.146;11.440;2023-03-03T02:17:25;31.37;;;14.03;;
70683;SDS011;58263;48.146;11.440;2023-03-03T02:19:56;34.00;;;13.65;;
70683;SDS011;58263;48.146;11.440;2023-03-03T02:22:31;36.05;;;13.50;;
70683;SDS011;58263;48.146;11.440;2023-03-03T02:25:04;34.10;;;13.00;;
70683;SDS011;58263;48.146;11.440;2023-03-03T02:27:35;33.15;;;13.57;;
70683;SDS011;58263;48.146;11.440;2023-03-03T02:30:07;36.70;;;14.15;;
70683;SDS011;58263;48.146;11.440;2023-03-03T02:32:37;32.75;;;12.93;;
70683;SDS011;58263;48.146;11.440;2023-03-03T02:35:19;33.30;;;14.97;;
70683;SDS011;58263;48.146;11.440;2023-03-03T02:37:57;32.10;;;13.82;;
70683;SDS011;58263;48.146;11.440;2023-03-03T02:40:28;30.23;;;13.27;;
70683;SDS011;58263;48.146;11.440;2023-03-03T02:42:57;35.00;;;13.48;;
70683;SDS011;58263;48.146;11.440;2023-03-03T02:45:25;36.70;;;14.27;;
70683;SDS011;58263;48.146;11.440;2023-03-03T02:47:50;36.93;;;14.70;;
70683;SDS011;58263;48.146;11.440;2023-03-03T02:50:16;29.15;;;12.45;;
70683;SDS011;58263;48.146;11.440;2023-03-03T02:52:41;35.95;;;14.70;;
70683;SDS011;58263;48.146;11.440;2023-03-03T02:55:07;35.33;;;13.57;;
70683;SDS011;58263;48.146;11.440;2023-03-03T02:57:32;29.75;;;13.18;;
70683;SDS011;58263;48.146;11.440;2023-03-03T02:59:58;32.53;;;13.82;;
70683;SDS011;58263;48.146;11.440;2023-03-03T03:02:23;30.00;;;13.80;;
70683;SDS011;58263;48.146;11.440;2023-03-03T03:04:48;33.57;;;14.10;;
70683;SDS011;58263;48.146;11.440;2023-03-03T03:07:14;30.87;;;12.77;;
70683;SDS011;58263;48.146;11.440;2023-03-03T03:09:39;32.70;;;13.87;;
70683;SDS011;58263;48.146;11.440;2023-03-03T03:12:04;32.75;;;12.75;;
70683;SDS011;58263;48.146;11.440;2023-03-03T03:14:30;29.85;;;12.57;;
70683;SDS011;58263;48.146;11.440;2023-03-03T03:16:55;34.50;;;12.23;;
70683;SDS011;58263;48.146;11.440;2023-03-03T03:19:20;30.00;;;13.87;;
70683;SDS011;58263;48.146;11.440;2023-03-03T03:21:46;34.60;;;13.47;;
70683;SDS011;58263;48.146;11.440;2023-03-03T03:24:11;32.40;;;14.40;;
70683;SDS011;58263;48.146;11.440;2023-03-03T03:26:36;31.57;;;13.17;;
70683;SDS011;58263;48.146;11.440;2023-03-03T03:29:02;33.47;;;13.70;;
70683;SDS011;58263;48.146;11.440;2023-03-03T03:31:27;35.27;;;14.63;;
70683;SDS011;58263;48.146;11.440;2023-03-03T03:33:52;34.93;;;15.03;;
70683;SDS011;58263;48.146;11.440;2023-03-03T03:36:18;33.58;;;14.25;;
70683;SDS011;58263;48.146;11.440;2023-03-03T03:38:43;29.77;;;13.57;;
70683;SDS011;58263;48.146;11.440;2023-03-03T03:41:09;33.10;;;14.77;;
70683;SDS011;58263;48.146;11.440;2023-03-03T03:43:35;29.83;;;13.10;;
70683;SDS011;58263;48.146;11.440;2023-03-03T03:46:00;32.47;;;14.60;;
70683;SDS011;58263;48.146;11.440;2023-03-03T03:48:27;32.28;;;13.80;;
70683;SDS011;58263;48.146;11.440;2023-03-03T03:50:52;35.75;;;16.27;;
70683;SDS011;58263;48.146;11.440;2023-03-03T03:53:17;29.97;;;13.20;;
70683;SDS011;58263;48.146;11.440;2023-03-03T03:55:43;33.50;;;13.77;;
70683;SDS011;58263;48.146;11.440;2023-03-03T03:58:13;31.48;;;14.45;;
70683;SDS011;58263;48.146;11.440;2023-03-03T04:00:40;27.88;;;13.57;;
70683;SDS011;58263;48.146;11.440;2023-03-03T04:03:06;34.42;;;14.02;;
70683;SDS011;58263;48.146;11.440;2023-03-03T04:05:31;31.98;;;13.80;;
70683;SDS011;58263;48.146;11.440;2023-03-03T04:07:56;29.07;;;13.73;;
70683;SDS011;58263;48.146;11.440;2023-03-03T04:10:22;33.70;;;13.63;;
70683;SDS011;58263;48.146;11.440;2023-03-03T04:12:47;30.53;;;13.53;;
70683;SDS011;58263;48.146;11.440;2023-03-03T04:15:12;32.27;;;13.77;;
70683;SDS011;58263;48.146;11.440;2023-03-03T04:17:38;36.70;;;15.15;;
70683;SDS011;58263;48.146;11.440;2023-03-03T04:20:05;30.08;;;13.07;;
70683;SDS011;58263;48.146;11.440;2023-03-03T04:22:31;33.83;;;14.18;;
70683;SDS011;58263;48.146;11.440;2023-03-03T04:25:01;32.20;;;14.38;;
70683;SDS011;58263;48.146;11.440;2023-03-03T04:27:32;32.17;;;13.88;;
70683;SDS011;58263;48.146;11.440;2023-03-03T04:29:58;32.85;;;14.00;;
70683;SDS011;58263;48.146;11.440;2023-03-03T04:32:23;33.10;;;13.63;;
70683;SDS011;58263;48.146;11.440;2023-03-03T04:34:49;34.00;;;13.65;;
70683;SDS011;58263;48.146;11.440;2023-03-03T04:37:14;35.00;;;14.23;;
70683;SDS011;58263;48.146;11.440;2023-03-03T04:39:39;33.50;;;15.00;;
70683;SDS011;58263;48.146;11.440;2023-03-03T04:42:05;33.07;;;13.57;;
70683;SDS011;58263;48.146;11.440;2023-03-03T04:44:30;35.75;;;15.43;;
70683;SDS011;58263;48.146;11.440;2023-03-03T04:46:55;33.92;;;13.95;;
70683;SDS011;58263;48.146;11.440;2023-03-03T04:49:21;29.20;;;13.20;;
70683;SDS011;58263;48.146;11.440;2023-03-03T04:51:46;34.70;;;13.77;;
70683;SDS011;58263;48.146;11.440;2023-03-03T04:54:11;34.60;;;14.73;;
70683;SDS011;58263;48.146;11.440;2023-03-03T04:56:37;34.63;;;14.57;;
70683;SDS011;58263;48.146;11.440;2023-03-03T04:59:02;35.85;;;16.00;;
70683;SDS011;58263;48.146;11.440;2023-03-03T05:01:27;33.30;;;14.50;;
70683;SDS011;58263;48.146;11.440;2023-03-03T05:03:52;36.10;;;15.63;;
70683;SDS011;58263;48.146;11.440;2023-03-03T05:06:18;33.87;;;15.23;;
70683;SDS011;58263;48.146;11.440;2023-03-03T05:08:44;35.47;;;14.85;;
70683;SDS011;58263;48.146;11.440;2023-03-03T05:11:09;36.83;;;14.60;;
70683;SDS011;58263;48.146;11.440;2023-03-03T05:13:35;33.65;;;13.85;;
70683;SDS011;58263;48.146;11.440;2023-03-03T05:16:01;39.80;;;15.73;;
70683;SDS011;58263;48.146;11.440;2023-03-03T05:18:26;37.38;;;16.15;;
70683;SDS011;58263;48.146;11.440;2023-03-03T05:20:52;38.38;;;14.32;;
70683;SDS011;58263;48.146;11.440;2023-03-03T05:23:18;32.28;;;14.55;;
70683;SDS011;58263;48.146;11.440;2023-03-03T05:25:46;32.92;;;15.10;;
70683;SDS011;58263;48.146;11.440;2023-03-03T05:28:12;37.97;;;16.08;;
70683;SDS011;58263;48.146;11.440;2023-03-03T05:30:37;35.40;;;14.85;;
70683;SDS011;58263;48.146;11.440;2023-03-03T05:33:03;34.35;;;14.82;;
70683;SDS011;58263;48.146;11.440;2023-03-03T05:35:29;35.28;;;15.60;;
70683;SDS011;58263;48.146;11.440;2023-03-03T05:37:55;34.75;;;14.65;;
70683;SDS011;58263;48.146;11.440;2023-03-03T05:40:22;35.70;;;15.30;;
70683;SDS011;58263;48.146;11.440;2023-03-03T05:42:48;35.95;;;14.90;;
70683;SDS011;58263;48.146;11.440;2023-03-03T05:45:13;33.27;;;15.23;;
70683;SDS011;58263;48.146;11.440;2023-03-03T05:47:39;37.78;;;16.65;;
70683;SDS011;58263;48.146;11.440;2023-03-03T05:50:04;36.00;;;14.83;;
70683;SDS011;58263;48.146;11.440;2023-03-03T05:52:29;35.45;;;16.20;;
70683;SDS011;58263;48.146;11.440;2023-03-03T05:54:55;37.73;;;16.17;;
70683;SDS011;58263;48.146;11.440;2023-03-03T05:57:21;38.70;;;17.15;;
70683;SDS011;58263;48.146;11.440;2023-03-03T05:59:46;39.28;;;16.55;;
70683;SDS011;58263;48.146;11.440;2023-03-03T06:02:11;36.20;;;16.35;;
70683;SDS011;58263;48.146;11.440;2023-03-03T06:04:37;39.17;;;16.50;;
70683;SDS011;58263;48.146;11.440;2023-03-03T06:07:02;40.50;;;16.48;;
70683;SDS011;58263;48.146;11.440;2023-03-03T06:09:27;38.33;;;15.33;;
70683;SDS011;58263;48.146;11.440;2023-03-03T06:11:53;43.70;;;17.43;;
70683;SDS011;58263;48.146;11.440;2023-03-03T06:14:19;36.93;;;15.50;;
70683;SDS011;58263;48.146;11.440;2023-03-03T06:16:45;42.80;;;17.20;;
70683;SDS011;58263;48.146;11.440;2023-03-03T06:19:11;44.15;;;18.63;;
70683;SDS011;58263;48.146;11.440;2023-03-03T06:21:36;45.00;;;18.80;;
70683;SDS011;58263;48.146;11.440;2023-03-03T06:24:02;44.07;;;18.37;;
70683;SDS011;58263;48.146;11.440;2023-03-03T06:26:27;43.53;;;17.88;;
70683;SDS011;58263;48.146;11.440;2023-03-03T06:28:52;44.38;;;17.88;;
70683;SDS011;58263;48.146;11.440;2023-03-03T06:31:19;42.95;;;18.05;;
70683;SDS011;58263;48.146;11.440;2023-03-03T06:33:45;42.65;;;16.65;;
70683;SDS011;58263;48.146;11.440;2023-03-03T06:36:10;48.78;;;17.95;;
70683;SDS011;58263;48.146;11.440;2023-03-03T06:38:36;46.65;;;18.45;;
70683;SDS011;58263;48.146;11.440;2023-03-03T06:41:01;43.00;;;17.23;;
70683;SDS011;58263;48.146;11.440;2023-03-03T06:43:31;45.75;;;17.35;;
70683;SDS011;58263;48.146;11.440;2023-03-03T06:45:57;43.10;;;18.30;;
70683;SDS011;58263;48.146;11.440;2023-03-03T06:48:22;46.97;;;18.23;;
70683;SDS011;58263;48.146;11.440;2023-03-03T06:50:47;40.40;;;17.63;;
70683;SDS011;58263;48.146;11.440;2023-03-03T06:53:13;46.67;;;18.63;;
70683;SDS011;58263;48.146;11.440;2023-03-03T06:55:41;44.45;;;17.85;;
70683;SDS011;58263;48.146;11.440;2023-03-03T06:58:16;51.33;;;19.27;;
70683;SDS011;58263;48.146;11.440;2023-03-03T07:00:44;47.90;;;19.50;;
70683;SDS011;58263;48.146;11.440;2023-03-03T07:03:33;42.90;;;17.10;;
70683;SDS011;58263;48.146;11.440;2023-03-03T07:05:59;46.72;;;18.45;;
70683;SDS011;58263;48.146;11.440;2023-03-03T07:08:26;38.58;;;18.30;;
70683;SDS011;58263;48.146;11.440;2023-03-03T07:10:55;40.67;;;17.08;;
70683;SDS011;58263;48.146;11.440;2023-03-03T07:13:27;44.00;;;18.05;;
70683;SDS011;58263;48.146;11.440;2023-03-03T07:15:58;47.80;;;19.63;;
70683;SDS011;58263;48.146;11.440;2023-03-03T07:21:52;47.67;;;19.98;;
70683;SDS011;58263;48.146;11.440;2023-03-03T07:23:57;54.92;;;22.63;;
70683;SDS011;58263;48.146;11.440;2023-03-03T07:26:25;44.80;;;19.73;;
70683;SDS011;58263;48.146;11.440;2023-03-03T07:28:58;46.63;;;18.20;;
70683;SDS011;58263;48.146;11.440;2023-03-03T07:34:04;48.72;;;20.25;;
70683;SDS011;58263;48.146;11.440;2023-03-03T07:36:43;45.55;;;20.17;;
70683;SDS011;58263;48.146;11.440;2023-03-03T07:41:53;51.67;;;21.35;;
70683;SDS011;58263;48.146;11.440;2023-03-03T07:44:44;45.95;;;19.92;;
70683;SDS011;58263;48.146;11.440;2023-03-03T07:49:51;41.90;;;17.65;;
70683;SDS011;58263;48.146;11.440;2023-03-03T07:52:23;45.65;;;19.33;;
70683;SDS011;58263;48.146;11.440;2023-03-03T07:54:51;50.10;;;20.40;;
70683;SDS011;58263;48.146;11.440;2023-03-03T07:57:19;48.40;;;20.35;;
70683;SDS011;58263;48.146;11.440;2023-03-03T08:05:32;41.13;;;19.17;;
70683;SDS011;58263;48.146;11.440;2023-03-03T08:13:08;47.58;;;19.77;;
70683;SDS011;58263;48.146;11.440;2023-03-03T08:15:40;40.65;;;18.38;;
70683;SDS011;58263;48.146;11.440;2023-03-03T08:18:13;43.50;;;19.10;;
70683;SDS011;58263;48.146;11.440;2023-03-03T08:20:43;47.67;;;19.33;;
70683;SDS011;58263;48.146;11.440;2023-03-03T08:23:30;56.05;;;23.55;;
70683;SDS011;58263;48.146;11.440;2023-03-03T08:25:55;47.50;;;20.83;;
70683;SDS011;58263;48.146;11.440;2023-03-03T08:28:20;45.97;;;19.57;;
70683;SDS011;58263;48.146;11.440;2023-03-03T08:30:47;44.28;;;19.13;;
70683;SDS011;58263;48.146;11.440;2023-03-03T08:33:13;50.33;;;20.23;;
70683;SDS011;58263;48.146;11.440;2023-03-03T08:35:39;45.00;;;18.45;;
70683;SDS011;58263;48.146;11.440;2023-03-03T08:38:05;41.38;;;19.17;;
70683;SDS011;58263;48.146;11.440;2023-03-03T08:40:31;51.40;;;19.92;;
70683;SDS011;58263;48.146;11.440;2023-03-03T08:42:57;47.45;;;19.55;;
70683;SDS011;58263;48.146;11.440;2023-03-03T08:45:23;47.93;;;20.47;;
70683;SDS011;58263;48.146;11.440;2023-03-03T08:47:49;44.55;;;18.70;;
70683;SDS011;58263;48.146;11.440;2023-03-03T08:50:14;45.58;;;21.40;;
70683;SDS011;58263;48.146;11.440;2023-03-03T08:52:41;44.58;;;18.73;;
70683;SDS011;58263;48.146;11.440;2023-03-03T08:55:06;47.13;;;19.83;;
70683;SDS011;58263;48.146;11.440;2023-03-03T08:57:32;47.03;;;19.67;;
70683;SDS011;58263;48.146;11.440;2023-03-03T08:59:58;43.60;;;20.23;;
70683;SDS011;58263;48.146;11.440;2023-03-03T09:02:23;36.73;;;17.70;;
70683;SDS011;58263;48.146;11.440;2023-03-03T09:04:48;44.20;;;18.37;;
70683;SDS011;58263;48.146;11.440;2023-03-03T09:07:14;45.40;;;19.53;;
70683;SDS011;58263;48.146;11.440;2023-03-03T09:09:39;45.45;;;20.33;;
70683;SDS011;58263;48.146;11.440;2023-03-03T09:12:18;45.33;;;20.13;;
70683;SDS011;58263;48.146;11.440;2023-03-03T09:14:49;47.55;;;20.00;;
70683;SDS011;58263;48.146;11.440;2023-03-03T09:17:23;43.17;;;18.92;;
70683;SDS011;58263;48.146;11.440;2023-03-03T09:19:57;46.17;;;21.00;;
70683;SDS011;58263;48.146;11.440;2023-03-03T09:22:27;46.70;;;20.33;;
70683;SDS011;58263;48.146;11.440;2023-03-03T09:24:53;51.50;;;21.92;;
70683;SDS011;58263;48.146;11.440;2023-03-03T09:27:28;45.85;;;21.83;;
70683;SDS011;58263;48.146;11.440;2023-03-03T09:30:41;51.03;;;20.45;;
70683;SDS011;58263;48.146;11.440;2023-03-03T09:32:50;45.65;;;21.15;;
70683;SDS011;58263;48.146;11.440;2023-03-03T09:35:25;51.22;;;22.40;;
70683;SDS011;58263;48.146;11.440;2023-03-03T09:38:01;48.42;;;20.58;;
70683;SDS011;58263;48.146;11.440;2023-03-03T09:46:39;50.17;;;20.98;;
70683;SDS011;58263;48.146;11.440;2023-03-03T09:52:25;39.50;;;19.65;;
70683;SDS011;58263;48.146;11.440;2023-03-03T10:00:18;40.13;;;18.60;;
70683;SDS011;58263;48.146;11.440;2023-03-03T10:03:35;41.45;;;20.02;;
70683;SDS011;58263;48.146;11.440;2023-03-03T10:06:02;43.60;;;20.42;;
70683;SDS011;58263;48.146;11.440;2023-03-03T10:14:03;45.13;;;20.92;;
70683;SDS011;58263;48.146;11.440;2023-03-03T10:19:27;47.88;;;21.73;;
70683;SDS011;58263;48.146;11.440;2023-03-03T10:22:18;46.08;;;19.98;;
70683;SDS011;58263;48.146;11.440;2023-03-03T10:25:01;51.80;;;20.80;;
70683;SDS011;58263;48.146;11.440;2023-03-03T10:27:35;43.38;;;20.05;;
70683;SDS011;58263;48.146;11.440;2023-03-03T10:30:12;51.22;;;21.50;;
70683;SDS011;58263;48.146;11.440;2023-03-03T10:38:57;40.45;;;20.23;;
70683;SDS011;58263;48.146;11.440;2023-03-03T10:41:41;45.60;;;20.23;;
70683;SDS011;58263;48.146;11.440;2023-03-03T10:50:35;57.17;;;25.73;;
70683;SDS011;58263;48.146;11.440;2023-03-03T10:53:21;40.05;;;19.38;;
70683;SDS011;58263;48.146;11.440;2023-03-03T10:55:56;56.33;;;25.33;;
70683;SDS011;58263;48.146;11.440;2023-03-03T11:10:04;47.75;;;21.88;;
70683;SDS011;58263;48.146;11.440;2023-03-03T11:12:33;48.75;;;22.30;;
70683;SDS011;58263;48.146;11.440;2023-03-03T11:15:12;45.78;;;21.08;;
70683;SDS011;58263;48.146;11.440;2023-03-03T11:23:25;50.10;;;20.98;;
70683;SDS011;58263;48.146;11.440;2023-03-03T11:36:37;44.10;;;20.03;;
70683;SDS011;58263;48.146;11.440;2023-03-03T11:39:08;51.92;;;22.05;;
70683;SDS011;58263;48.146;11.440;2023-03-03T11:41:41;41.17;;;19.50;;
70683;SDS011;58263;48.146;11.440;2023-03-03T11:46:45;42.40;;;19.42;;
70683;SDS011;58263;48.146;11.440;2023-03-03T11:49:32;42.88;;;20.05;;
70683;SDS011;58263;48.146;11.440;2023-03-03T11:52:10;64.85;;;28.13;;
70683;SDS011;58263;48.146;11.440;2023-03-03T11:57:35;39.88;;;21.67;;
70683;SDS011;58263;48.146;11.440;2023-03-03T12:02:47;45.45;;;22.27;;
70683;SDS011;58263;48.146;11.440;2023-03-03T12:10:31;54.63;;;21.33;;
70683;SDS011;58263;48.146;11.440;2023-03-03T12:13:10;43.42;;;20.52;;
70683;SDS011;58263;48.146;11.440;2023-03-03T12:26:43;45.53;;;22.13;;
70683;SDS011;58263;48.146;11.440;2023-03-03T12:29:30;44.45;;;21.20;;
70683;SDS011;58263;48.146;11.440;2023-03-03T12:32:14;42.92;;;20.90;;
70683;SDS011;58263;48.146;11.440;2023-03-03T12:37:44;40.75;;;21.40;;
70683;SDS011;58263;48.146;11.440;2023-03-03T12:40:19;42.60;;;20.50;;
70683;SDS011;58263;48.146;11.440;2023-03-03T12:42:51;43.53;;;21.17;;
70683;SDS011;58263;48.146;11.440;2023-03-03T12:45:46;44.60;;;20.48;;
70683;SDS011;58263;48.146;11.440;2023-03-03T12:48:43;43.83;;;20.48;;
70683;SDS011;58263;48.146;11.440;2023-03-03T12:59:43;42.15;;;21.30;;
70683;SDS011;58263;48.146;11.440;2023-03-03T13:14:12;42.97;;;19.67;;
70683;SDS011;58263;48.146;11.440;2023-03-03T13:19:43;43.78;;;21.08;;
70683;SDS011;58263;48.146;11.440;2023-03-03T13:22:17;40.10;;;20.60;;
70683;SDS011;58263;48.146;11.440;2023-03-03T13:24:58;43.95;;;23.13;;
70683;SDS011;58263;48.146;11.440;2023-03-03T13:27:34;45.35;;;20.23;;
70683;SDS011;58263;48.146;11.440;2023-03-03T13:30:25;36.25;;;19.02;;
70683;SDS011;58263;48.146;11.440;2023-03-03T13:35:49;43.50;;;20.20;;
70683;SDS011;58263;48.146;11.440;2023-03-03T13:41:03;41.72;;;20.45;;
70683;SDS011;58263;48.146;11.440;2023-03-03T13:44:33;41.97;;;19.98;;
70683;SDS011;58263;48.146;11.440;2023-03-03T13:50:04;41.28;;;20.27;;
70683;SDS011;58263;48.146;11.440;2023-03-03T13:56:11;38.00;;;18.55;;
70683;SDS011;58263;48.146;11.440;2023-03-03T13:58:49;39.70;;;20.40;;
70683;SDS011;58263;48.146;11.440;2023-03-03T14:01:29;38.55;;;21.38;;
70683;SDS011;58263;48.146;11.440;2023-03-03T14:09:51;36.80;;;19.25;;
70683;SDS011;58263;48.146;11.440;2023-03-03T14:15:32;40.08;;;19.13;;
70683;SDS011;58263;48.146;11.440;2023-03-03T14:20:57;35.72;;;18.45;;
70683;SDS011;58263;48.146;11.440;2023-03-03T14:23:49;38.88;;;20.60;;
70683;SDS011;58263;48.146;11.440;2023-03-03T14:26:21;37.92;;;19.25;;
70683;SDS011;58263;48.146;11.440;2023-03-03T14:28:48;36.25;;;20.17;;
70683;SDS011;58263;48.146;11.440;2023-03-03T14:31:19;37.33;;;18.45;;
70683;SDS011;58263;48.146;11.440;2023-03-03T14:36:39;33.72;;;18.48;;
70683;SDS011;58263;48.146;11.440;2023-03-03T14:41:51;37.47;;;19.15;;
70683;SDS011;58263;48.146;11.440;2023-03-03T14:44:23;35.75;;;18.90;;
70683;SDS011;58263;48.146;11.440;2023-03-03T14:49:57;33.25;;;17.50;;
70683;SDS011;58263;48.146;11.440;2023-03-03T14:52:28;46.72;;;23.95;;
70683;SDS011;58263;48.146;11.440;2023-03-03T14:54:58;34.15;;;18.70;;
70683;SDS011;58263;48.146;11.440;2023-03-03T14:57:47;33.40;;;19.13;;
70683;SDS011;58263;48.146;11.440;2023-03-03T15:05:16;36.92;;;18.98;;
70683;SDS011;58263;48.146;11.440;2023-03-03T15:10:34;36.33;;;19.75;;
70683;SDS011;58263;48.146;11.440;2023-03-03T15:13:34;37.60;;;19.60;;
70683;SDS011;58263;48.146;11.440;2023-03-03T15:18:24;32.53;;;18.30;;
70683;SDS011;58263;48.146;11.440;2023-03-03T15:31:37;34.53;;;18.52;;
70683;SDS011;58263;48.146;11.440;2023-03-03T15:36:49;36.80;;;18.55;;
70683;SDS011;58263;48.146;11.440;2023-03-03T15:39:27;31.20;;;18.17;;
70683;SDS011;58263;48.146;11.440;2023-03-03T15:42:17;43.85;;;20.08;;
70683;SDS011;58263;48.146;11.440;2023-03-03T15:44:55;33.60;;;18.20;;
70683;SDS011;58263;48.146;11.440;2023-03-03T15:52:45;38.80;;;19.48;;
70683;SDS011;58263;48.146;11.440;2023-03-03T15:55:26;40.30;;;20.92;;
70683;SDS011;58263;48.146;11.440;2023-03-03T15:58:07;38.75;;;20.40;;
70683;SDS011;58263;48.146;11.440;2023-03-03T16:03:34;44.00;;;20.90;;
70683;SDS011;58263;48.146;11.440;2023-03-03T16:06:21;40.67;;;21.98;;
70683;SDS011;58263;48.146;11.440;2023-03-03T16:09:39;39.13;;;19.52;;
70683;SDS011;58263;48.146;11.440;2023-03-03T16:11:58;35.53;;;19.27;;
70683;SDS011;58263;48.146;11.440;2023-03-03T16:14:42;43.15;;;20.50;;
70683;SDS011;58263;48.146;11.440;2023-03-03T16:20:02;34.42;;;19.67;;
70683;SDS011;58263;48.146;11.440;2023-03-03T16:27:52;42.83;;;20.05;;
70683;SDS011;58263;48.146;11.440;2023-03-03T16:33:18;38.53;;;19.08;;
70683;SDS011;58263;48.146;11.440;2023-03-03T16:41:37;42.13;;;22.05;;
70683;SDS011;58263;48.146;11.440;2023-03-03T16:47:09;41.60;;;19.73;;
70683;SDS011;58263;48.146;11.440;2023-03-03T16:49:52;42.67;;;20.42;;
70683;SDS011;58263;48.146;11.440;2023-03-03T16:52:36;35.75;;;18.55;;
70683;SDS011;58263;48.146;11.440;2023-03-03T16:55:14;41.13;;;20.38;;
70683;SDS011;58263;48.146;11.440;2023-03-03T17:00:33;43.30;;;19.42;;
70683;SDS011;58263;48.146;11.440;2023-03-03T17:05:56;40.30;;;19.20;;
70683;SDS011;58263;48.146;11.440;2023-03-03T17:14:17;39.53;;;19.83;;
70683;SDS011;58263;48.146;11.440;2023-03-03T17:19:36;47.08;;;21.20;;
70683;SDS011;58263;48.146;11.440;2023-03-03T17:27:26;48.65;;;23.23;;
70683;SDS011;58263;48.146;11.440;2023-03-03T17:30:09;40.90;;;22.48;;
70683;SDS011;58263;48.146;11.440;2023-03-03T17:35:54;46.15;;;20.10;;
70683;SDS011;58263;48.146;11.440;2023-03-03T17:44:32;40.28;;;19.75;;
70683;SDS011;58263;48.146;11.440;2023-03-03T17:47:06;49.90;;;22.58;;
70683;SDS011;58263;48.146;11.440;2023-03-03T17:52:19;50.10;;;22.35;;
70683;SDS011;58263;48.146;11.440;2023-03-03T18:05:52;45.17;;;22.60;;
70683;SDS011;58263;48.146;11.440;2023-03-03T18:22:16;52.15;;;23.52;;
70683;SDS011;58263;48.146;11.440;2023-03-03T18:51:48;50.00;;;20.80;;
70683;SDS011;58263;48.146;11.440;2023-03-03T19:02:41;54.65;;;24.00;;
70683;SDS011;58263;48.146;11.440;2023-03-03T19:05:17;51.85;;;22.17;;
70683;SDS011;58263;48.146;11.440;2023-03-03T19:07:49;46.95;;;21.40;;
70683;SDS011;58263;48.146;11.440;2023-03-03T19:16:00;57.63;;;25.55;;
70683;SDS011;58263;48.146;11.440;2023-03-03T19:19:13;48.35;;;21.35;;
70683;SDS011;58263;48.146;11.440;2023-03-03T19:23:53;54.50;;;23.30;;
70683;SDS011;58263;48.146;11.440;2023-03-03T19:29:14;51.23;;;22.30;;
70683;SDS011;58263;48.146;11.440;2023-03-03T19:34:45;49.15;;;20.23;;
70683;SDS011;58263;48.146;11.440;2023-03-03T19:37:36;53.30;;;21.98;;
70683;SDS011;58263;48.146;11.440;2023-03-03T19:51:45;43.63;;;21.00;;
70683;SDS011;58263;48.146;11.440;2023-03-03T19:57:18;48.28;;;21.20;;
70683;SDS011;58263;48.146;11.440;2023-03-03T20:00:06;50.60;;;21.85;;
70683;SDS011;58263;48.146;11.440;2023-03-03T20:03:17;52.35;;;23.02;;
70683;SDS011;58263;48.146;11.440;2023-03-03T20:05:54;53.95;;;22.58;;
70683;SDS011;58263;48.146;11.440;2023-03-03T20:08:40;53.72;;;22.52;;
70683;SDS011;58263;48.146;11.440;2023-03-03T20:11:15;45.67;;;20.27;;
70683;SDS011;58263;48.146;11.440;2023-03-03T20:13:53;50.55;;;22.90;;
70683;SDS011;58263;48.146;11.440;2023-03-03T20:16:49;50.55;;;23.30;;
70683;SDS011;58263;48.146;11.440;2023-03-03T20:22:13;55.60;;;24.40;;
70683;SDS011;58263;48.146;11.440;2023-03-03T20:30:55;51.03;;;22.17;;